sensor_id;sensor_type;location;lat;lon;timestamp;pressure;altitude;pressure_sealevel;temperature
75273;BMP280;63869;52.344;16.928;2023-05-10T00:01:15;100928.75;;;11.19
75273;BMP280;63869;52.344;16.928;2023-05-10T00:03:41;100932.56;;;11.18
75273;BMP280;63869;52.344;16.928;2023-05-10T00:06:06;100926.50;;;11.14
75273;BMP280;63869;52.344;16.928;2023-05-10T00:08:31;100912.84;;;11.09
75273;BMP280;63869;52.344;16.928;2023-05-10T00:10:57;100908.28;;;11.02
75273;BMP280;63869;52.344;16.928;2023-05-10T00:13:22;100917.47;;;11.01
75273;BMP280;63869;52.344;16.928;2023-05-10T00:15:47;100908.75;;;10.97
75273;BMP280;63869;52.344;16.928;2023-05-10T00:18:13;100905.38;;;10.93
75273;BMP280;63869;52.344;16.928;2023-05-10T00:20:38;100910.31;;;10.94
75273;BMP280;63869;52.344;16.928;2023-05-10T00:23:03;100903.44;;;10.93
75273;BMP280;63869;52.344;16.928;2023-05-10T00:25:29;100892.44;;;10.88
75273;BMP280;63869;52.344;16.928;2023-05-10T00:27:54;100897.00;;;10.87
75273;BMP280;63869;52.344;16.928;2023-05-10T00:30:22;100891.69;;;10.84
75273;BMP280;63869;52.344;16.928;2023-05-10T00:32:47;100894.72;;;10.86
75273;BMP280;63869;52.344;16.928;2023-05-10T00:35:15;100879.59;;;10.76
75273;BMP280;63869;52.344;16.928;2023-05-10T00:37:40;100886.84;;;10.75
75273;BMP280;63869;52.344;16.928;2023-05-10T00:40:06;100893.66;;;10.80
75273;BMP280;63869;52.344;16.928;2023-05-10T00:42:32;100889.13;;;10.77
75273;BMP280;63869;52.344;16.928;2023-05-10T00:44:57;100891.81;;;10.77
75273;BMP280;63869;52.344;16.928;2023-05-10T00:47:23;100878.47;;;10.69
75273;BMP280;63869;52.344;16.928;2023-05-10T00:49:48;100889.53;;;10.71
75273;BMP280;63869;52.344;16.928;2023-05-10T00:52:14;100889.59;;;10.68
75273;BMP280;63869;52.344;16.928;2023-05-10T00:54:39;100871.34;;;10.56
75273;BMP280;63869;52.344;16.928;2023-05-10T00:57:04;100880.88;;;10.60
75273;BMP280;63869;52.344;16.928;2023-05-10T00:59:30;100876.34;;;10.57
75273;BMP280;63869;52.344;16.928;2023-05-10T01:01:55;100876.00;;;10.52
75273;BMP280;63869;52.344;16.928;2023-05-10T01:04:21;100883.66;;;10.50
75273;BMP280;63869;52.344;16.928;2023-05-10T01:06:51;100874.56;;;10.44
75273;BMP280;63869;52.344;16.928;2023-05-10T01:09:16;100876.09;;;10.41
75273;BMP280;63869;52.344;16.928;2023-05-10T01:11:43;100878.03;;;10.37
75273;BMP280;63869;52.344;16.928;2023-05-10T01:14:08;100872.00;;;10.29
75273;BMP280;63869;52.344;16.928;2023-05-10T01:16:38;100867.88;;;10.25
75273;BMP280;63869;52.344;16.928;2023-05-10T01:19:08;100866.31;;;10.24
75273;BMP280;63869;52.344;16.928;2023-05-10T01:21:45;100866.00;;;10.18
75273;BMP280;63869;52.344;16.928;2023-05-10T01:29:36;100864.19;;;10.05
75273;BMP280;63869;52.344;16.928;2023-05-10T01:35:00;100849.06;;;9.87
75273;BMP280;63869;52.344;16.928;2023-05-10T01:37:33;100855.91;;;9.88
75273;BMP280;63869;52.344;16.928;2023-05-10T01:40:08;100855.22;;;9.84
75273;BMP280;63869;52.344;16.928;2023-05-10T01:42:53;100848.38;;;9.76
75273;BMP280;63869;52.344;16.928;2023-05-10T01:45:38;100855.25;;;9.77
75273;BMP280;63869;52.344;16.928;2023-05-10T01:48:08;100852.97;;;9.72
75273;BMP280;63869;52.344;16.928;2023-05-10T01:50:36;100850.31;;;9.72
75273;BMP280;63869;52.344;16.928;2023-05-10T01:53:06;100854.53;;;9.70
75273;BMP280;63869;52.344;16.928;2023-05-10T01:55:35;100851.91;;;9.66
75273;BMP280;63869;52.344;16.928;2023-05-10T01:58:07;100850.00;;;9.63
75273;BMP280;63869;52.344;16.928;2023-05-10T02:00:35;100842.00;;;9.59
75273;BMP280;63869;52.344;16.928;2023-05-10T02:03:05;100844.72;;;9.56
75273;BMP280;63869;52.344;16.928;2023-05-10T02:05:32;100842.03;;;9.56
75273;BMP280;63869;52.344;16.928;2023-05-10T02:07:58;100846.63;;;9.52
75273;BMP280;63869;52.344;16.928;2023-05-10T02:10:27;100839.44;;;9.49
75273;BMP280;63869;52.344;16.928;2023-05-10T02:12:53;100845.53;;;9.46
75273;BMP280;63869;52.344;16.928;2023-05-10T02:15:22;100836.38;;;9.43
75273;BMP280;63869;52.344;16.928;2023-05-10T02:17:49;100833.38;;;9.38
75273;BMP280;63869;52.344;16.928;2023-05-10T02:20:16;100827.28;;;9.34
75273;BMP280;63869;52.344;16.928;2023-05-10T02:22:42;100834.53;;;9.37
75273;BMP280;63869;52.344;16.928;2023-05-10T02:25:09;100830.34;;;9.32
75273;BMP280;63869;52.344;16.928;2023-05-10T02:27:36;100817.44;;;9.23
75273;BMP280;63869;52.344;16.928;2023-05-10T02:30:02;100822.00;;;9.30
75273;BMP280;63869;52.344;16.928;2023-05-10T02:32:29;100823.91;;;9.26
75273;BMP280;63869;52.344;16.928;2023-05-10T02:34:55;100828.88;;;9.24
75273;BMP280;63869;52.344;16.928;2023-05-10T02:37:21;100838.00;;;9.26
75273;BMP280;63869;52.344;16.928;2023-05-10T02:39:52;100835.72;;;9.21
75273;BMP280;63869;52.344;16.928;2023-05-10T02:42:20;100837.66;;;9.21
75273;BMP280;63869;52.344;16.928;2023-05-10T02:44:48;100830.41;;;9.21
75273;BMP280;63869;52.344;16.928;2023-05-10T02:47:14;100834.63;;;9.19
75273;BMP280;63869;52.344;16.928;2023-05-10T02:49:40;100826.22;;;9.13
75273;BMP280;63869;52.344;16.928;2023-05-10T02:52:06;100822.81;;;9.13
75273;BMP280;63869;52.344;16.928;2023-05-10T02:54:39;100826.22;;;9.13
75273;BMP280;63869;52.344;16.928;2023-05-10T02:57:06;100833.13;;;9.14
75273;BMP280;63869;52.344;16.928;2023-05-10T02:59:32;100823.59;;;9.10
75273;BMP280;63869;52.344;16.928;2023-05-10T03:01:59;100825.88;;;9.11
75273;BMP280;63869;52.344;16.928;2023-05-10T03:04:25;100820.56;;;9.08
75273;BMP280;63869;52.344;16.928;2023-05-10T03:06:51;100819.41;;;9.09
75273;BMP280;63869;52.344;16.928;2023-05-10T03:09:16;100816.75;;;9.05
75273;BMP280;63869;52.344;16.928;2023-05-10T03:11:59;100816.00;;;9.05
75273;BMP280;63869;52.344;16.928;2023-05-10T03:17:04;100811.81;;;9.07
75273;BMP280;63869;52.344;16.928;2023-05-10T03:19:37;100817.50;;;9.09
75273;BMP280;63869;52.344;16.928;2023-05-10T03:22:08;100815.56;;;9.13
75273;BMP280;63869;52.344;16.928;2023-05-10T03:24:35;100814.81;;;9.16
75273;BMP280;63869;52.344;16.928;2023-05-10T03:27:02;100807.97;;;9.15
75273;BMP280;63869;52.344;16.928;2023-05-10T03:29:29;100819.00;;;9.17
75273;BMP280;63869;52.344;16.928;2023-05-10T03:31:58;100807.56;;;9.13
75273;BMP280;63869;52.344;16.928;2023-05-10T03:34:24;100814.44;;;9.18
75273;BMP280;63869;52.344;16.928;2023-05-10T03:36:50;100794.66;;;9.05
75273;BMP280;63869;52.344;16.928;2023-05-10T03:39:15;100807.56;;;9.17
75273;BMP280;63869;52.344;16.928;2023-05-10T03:41:40;100807.56;;;9.20
75273;BMP280;63869;52.344;16.928;2023-05-10T03:44:06;100811.72;;;9.21
75273;BMP280;63869;52.344;16.928;2023-05-10T03:46:31;100814.75;;;9.23
75273;BMP280;63869;52.344;16.928;2023-05-10T03:48:57;100809.03;;;9.25
75273;BMP280;63869;52.344;16.928;2023-05-10T03:51:22;100812.84;;;9.27
75273;BMP280;63869;52.344;16.928;2023-05-10T03:53:47;100805.22;;;9.29
75273;BMP280;63869;52.344;16.928;2023-05-10T03:56:12;100817.75;;;9.36
75273;BMP280;63869;52.344;16.928;2023-05-10T03:58:38;100815.06;;;9.40
75273;BMP280;63869;52.344;16.928;2023-05-10T04:01:03;100817.72;;;9.47
75273;BMP280;63869;52.344;16.928;2023-05-10T04:03:29;100810.41;;;9.51
75273;BMP280;63869;52.344;16.928;2023-05-10T04:05:59;100808.88;;;9.53
75273;BMP280;63869;52.344;16.928;2023-05-10T04:08:25;100810.34;;;9.65
75273;BMP280;63869;52.344;16.928;2023-05-10T04:10:50;100814.09;;;9.71
75273;BMP280;63869;52.344;16.928;2023-05-10T04:13:16;100814.03;;;9.78
75273;BMP280;63869;52.344;16.928;2023-05-10T04:15:41;100811.72;;;9.84
75273;BMP280;63869;52.344;16.928;2023-05-10T04:18:06;100817.72;;;9.95
75273;BMP280;63869;52.344;16.928;2023-05-10T04:20:32;100822.25;;;10.02
75273;BMP280;63869;52.344;16.928;2023-05-10T04:22:58;100808.44;;;10.07
75273;BMP280;63869;52.344;16.928;2023-05-10T04:25:23;100815.22;;;10.18
75273;BMP280;63869;52.344;16.928;2023-05-10T04:27:48;100820.13;;;10.27
75273;BMP280;63869;52.344;16.928;2023-05-10T04:30:14;100817.38;;;10.34
75273;BMP280;63869;52.344;16.928;2023-05-10T04:32:39;100815.75;;;10.44
75273;BMP280;63869;52.344;16.928;2023-05-10T04:35:05;100824.78;;;10.57
75273;BMP280;63869;52.344;16.928;2023-05-10T04:37:30;100821.59;;;10.65
75273;BMP280;63869;52.344;16.928;2023-05-10T04:39:56;100822.25;;;10.77
75273;BMP280;63869;52.344;16.928;2023-05-10T04:42:21;100821.34;;;10.87
75273;BMP280;63869;52.344;16.928;2023-05-10T04:44:46;100815.91;;;10.94
75273;BMP280;63869;52.344;16.928;2023-05-10T04:47:12;100826.09;;;11.06
75273;BMP280;63869;52.344;16.928;2023-05-10T04:49:38;100824.06;;;11.14
75273;BMP280;63869;52.344;16.928;2023-05-10T04:52:03;100834.16;;;11.29
75273;BMP280;63869;52.344;16.928;2023-05-10T04:54:28;100829.41;;;11.40
75273;BMP280;63869;52.344;16.928;2023-05-10T04:56:55;100830.78;;;11.52
75273;BMP280;63869;52.344;16.928;2023-05-10T04:59:20;100821.13;;;11.58
75273;BMP280;63869;52.344;16.928;2023-05-10T05:01:46;100826.25;;;11.72
75273;BMP280;63869;52.344;16.928;2023-05-10T05:04:11;100834.47;;;11.85
75273;BMP280;63869;52.344;16.928;2023-05-10T05:06:36;100827.50;;;11.91
75273;BMP280;63869;52.344;16.928;2023-05-10T05:09:02;100838.78;;;12.02
75273;BMP280;63869;52.344;16.928;2023-05-10T05:11:27;100840.09;;;12.14
75273;BMP280;63869;52.344;16.928;2023-05-10T05:13:52;100836.13;;;12.22
75273;BMP280;63869;52.344;16.928;2023-05-10T05:16:18;100836.75;;;12.30
75273;BMP280;63869;52.344;16.928;2023-05-10T05:18:43;100846.84;;;12.42
75273;BMP280;63869;52.344;16.928;2023-05-10T05:21:15;100837.94;;;12.48
75273;BMP280;63869;52.344;16.928;2023-05-10T05:23:41;100842.38;;;12.55
75273;BMP280;63869;52.344;16.928;2023-05-10T05:26:06;100844.47;;;12.67
75273;BMP280;63869;52.344;16.928;2023-05-10T05:28:32;100841.28;;;12.72
75273;BMP280;63869;52.344;16.928;2023-05-10T05:30:59;100844.94;;;12.82
75273;BMP280;63869;52.344;16.928;2023-05-10T05:33:25;100850.09;;;12.93
75273;BMP280;63869;52.344;16.928;2023-05-10T05:35:50;100844.56;;;13.00
75273;BMP280;63869;52.344;16.928;2023-05-10T05:38:16;100845.56;;;13.06
75273;BMP280;63869;52.344;16.928;2023-05-10T05:40:42;100837.38;;;13.13
75273;BMP280;63869;52.344;16.928;2023-05-10T05:43:07;100834.94;;;13.18
75273;BMP280;63869;52.344;16.928;2023-05-10T05:45:32;100819.91;;;13.21
75273;BMP280;63869;52.344;16.928;2023-05-10T05:47:58;100827.31;;;13.33
75273;BMP280;63869;52.344;16.928;2023-05-10T05:50:25;100841.19;;;13.48
75273;BMP280;63869;52.344;16.928;2023-05-10T05:52:50;100844.84;;;13.54
75273;BMP280;63869;52.344;16.928;2023-05-10T05:55:16;100838.88;;;13.63
75273;BMP280;63869;52.344;16.928;2023-05-10T05:57:41;100841.06;;;13.68
75273;BMP280;63869;52.344;16.928;2023-05-10T06:00:07;100838.53;;;13.77
75273;BMP280;63869;52.344;16.928;2023-05-10T06:02:32;100836.44;;;13.84
75273;BMP280;63869;52.344;16.928;2023-05-10T06:04:58;100835.81;;;13.93
75273;BMP280;63869;52.344;16.928;2023-05-10T06:07:23;100840.59;;;14.02
75273;BMP280;63869;52.344;16.928;2023-05-10T06:09:48;100838.47;;;14.09
75273;BMP280;63869;52.344;16.928;2023-05-10T06:12:14;100840.22;;;14.16
75273;BMP280;63869;52.344;16.928;2023-05-10T06:14:39;100841.88;;;14.26
75273;BMP280;63869;52.344;16.928;2023-05-10T06:17:04;100844.34;;;14.33
75273;BMP280;63869;52.344;16.928;2023-05-10T06:19:30;100836.53;;;14.39
75273;BMP280;63869;52.344;16.928;2023-05-10T06:21:55;100834.38;;;14.46
75273;BMP280;63869;52.344;16.928;2023-05-10T06:24:21;100840.31;;;14.54
75273;BMP280;63869;52.344;16.928;2023-05-10T06:26:46;100834.31;;;14.62
75273;BMP280;63869;52.344;16.928;2023-05-10T06:29:12;100836.34;;;14.71
75273;BMP280;63869;52.344;16.928;2023-05-10T06:31:37;100838.06;;;14.78
75273;BMP280;63869;52.344;16.928;2023-05-10T06:34:02;100837.56;;;14.83
75273;BMP280;63869;52.344;16.928;2023-05-10T06:36:27;100841.13;;;14.92
75273;BMP280;63869;52.344;16.928;2023-05-10T06:38:53;100832.53;;;14.97
75273;BMP280;63869;52.344;16.928;2023-05-10T06:41:18;100834.22;;;15.04
75273;BMP280;63869;52.344;16.928;2023-05-10T06:43:43;100835.84;;;15.14
75273;BMP280;63869;52.344;16.928;2023-05-10T06:46:09;100836.78;;;15.20
75273;BMP280;63869;52.344;16.928;2023-05-10T06:48:34;100827.41;;;15.25
75273;BMP280;63869;52.344;16.928;2023-05-10T06:50:59;100839.78;;;15.35
75273;BMP280;63869;52.344;16.928;2023-05-10T06:53:25;100834.16;;;15.42
75273;BMP280;63869;52.344;16.928;2023-05-10T06:55:50;100846.25;;;15.50
75273;BMP280;63869;52.344;16.928;2023-05-10T06:58:16;100839.97;;;15.53
75273;BMP280;63869;52.344;16.928;2023-05-10T07:00:41;100837.34;;;15.62
75273;BMP280;63869;52.344;16.928;2023-05-10T07:03:09;100834.75;;;15.71
75273;BMP280;63869;52.344;16.928;2023-05-10T07:05:35;100844.09;;;15.79
75273;BMP280;63869;52.344;16.928;2023-05-10T07:08:00;100839.22;;;15.87
75273;BMP280;63869;52.344;16.928;2023-05-10T07:10:26;100840.47;;;15.95
75273;BMP280;63869;52.344;16.928;2023-05-10T07:12:51;100837.09;;;16.04
75273;BMP280;63869;52.344;16.928;2023-05-10T07:15:17;100834.13;;;16.11
75273;BMP280;63869;52.344;16.928;2023-05-10T07:17:42;100828.78;;;16.20
75273;BMP280;63869;52.344;16.928;2023-05-10T07:20:08;100825.84;;;16.27
75273;BMP280;63869;52.344;16.928;2023-05-10T07:22:33;100827.09;;;16.35
75273;BMP280;63869;52.344;16.928;2023-05-10T07:24:59;100833.28;;;16.45
75273;BMP280;63869;52.344;16.928;2023-05-10T07:27:25;100832.56;;;16.53
75273;BMP280;63869;52.344;16.928;2023-05-10T07:29:50;100826.91;;;16.60
75273;BMP280;63869;52.344;16.928;2023-05-10T07:32:15;100822.13;;;16.65
75273;BMP280;63869;52.344;16.928;2023-05-10T07:34:41;100832.53;;;16.75
75273;BMP280;63869;52.344;16.928;2023-05-10T07:37:06;100825.66;;;16.83
75273;BMP280;63869;52.344;16.928;2023-05-10T07:39:32;100825.81;;;16.89
75273;BMP280;63869;52.344;16.928;2023-05-10T07:41:58;100820.13;;;16.96
75273;BMP280;63869;52.344;16.928;2023-05-10T07:44:23;100817.00;;;17.07
75273;BMP280;63869;52.344;16.928;2023-05-10T07:46:48;100830.97;;;17.14
75273;BMP280;63869;52.344;16.928;2023-05-10T07:49:14;100814.78;;;17.14
75273;BMP280;63869;52.344;16.928;2023-05-10T07:51:39;100824.25;;;17.28
75273;BMP280;63869;52.344;16.928;2023-05-10T07:54:05;100819.03;;;17.33
75273;BMP280;63869;52.344;16.928;2023-05-10T07:56:31;100825.91;;;17.44
75273;BMP280;63869;52.344;16.928;2023-05-10T07:59:02;100826.38;;;17.51
75273;BMP280;63869;52.344;16.928;2023-05-10T08:01:33;100815.25;;;17.58
75273;BMP280;63869;52.344;16.928;2023-05-10T08:03:58;100821.13;;;17.66
75273;BMP280;63869;52.344;16.928;2023-05-10T08:06:24;100822.00;;;17.72
75273;BMP280;63869;52.344;16.928;2023-05-10T08:08:51;100808.00;;;17.73
75273;BMP280;63869;52.344;16.928;2023-05-10T08:11:19;100818.69;;;17.86
75273;BMP280;63869;52.344;16.928;2023-05-10T08:13:45;100819.56;;;17.92
75273;BMP280;63869;52.344;16.928;2023-05-10T08:16:11;100818.50;;;17.99
75273;BMP280;63869;52.344;16.928;2023-05-10T08:18:37;100816.69;;;18.05
75273;BMP280;63869;52.344;16.928;2023-05-10T08:21:02;100812.94;;;18.11
75273;BMP280;63869;52.344;16.928;2023-05-10T08:23:28;100821.16;;;18.17
75273;BMP280;63869;52.344;16.928;2023-05-10T08:25:53;100821.59;;;18.25
75273;BMP280;63869;52.344;16.928;2023-05-10T08:28:18;100826.69;;;18.32
75273;BMP280;63869;52.344;16.928;2023-05-10T08:30:44;100823.34;;;18.37
75273;BMP280;63869;52.344;16.928;2023-05-10T08:33:09;100820.03;;;18.42
75273;BMP280;63869;52.344;16.928;2023-05-10T08:35:34;100814.31;;;18.49
75273;BMP280;63869;52.344;16.928;2023-05-10T08:38:00;100825.72;;;18.53
75273;BMP280;63869;52.344;16.928;2023-05-10T08:40:26;100817.25;;;18.60
75273;BMP280;63869;52.344;16.928;2023-05-10T08:42:56;100824.28;;;18.67
75273;BMP280;63869;52.344;16.928;2023-05-10T08:45:24;100816.28;;;18.72
75273;BMP280;63869;52.344;16.928;2023-05-10T08:47:51;100811.72;;;18.78
75273;BMP280;63869;52.344;16.928;2023-05-10T08:50:19;100810.06;;;18.81
75273;BMP280;63869;52.344;16.928;2023-05-10T08:52:46;100817.22;;;18.93
75273;BMP280;63869;52.344;16.928;2023-05-10T08:55:13;100809.19;;;18.98
75273;BMP280;63869;52.344;16.928;2023-05-10T08:57:39;100810.97;;;19.02
75273;BMP280;63869;52.344;16.928;2023-05-10T09:00:05;100809.16;;;19.08
75273;BMP280;63869;52.344;16.928;2023-05-10T09:02:30;100807.84;;;19.18
75273;BMP280;63869;52.344;16.928;2023-05-10T09:04:56;100806.00;;;19.24
75273;BMP280;63869;52.344;16.928;2023-05-10T09:07:21;100801.16;;;19.28
75273;BMP280;63869;52.344;16.928;2023-05-10T09:09:47;100802.28;;;19.36
75273;BMP280;63869;52.344;16.928;2023-05-10T09:12:13;100806.59;;;19.43
75273;BMP280;63869;52.344;16.928;2023-05-10T09:14:41;100796.59;;;19.49
75273;BMP280;63869;52.344;16.928;2023-05-10T09:17:07;100796.69;;;19.54
75273;BMP280;63869;52.344;16.928;2023-05-10T09:19:32;100801.97;;;19.58
75273;BMP280;63869;52.344;16.928;2023-05-10T09:21:58;100785.47;;;19.61
75273;BMP280;63869;52.344;16.928;2023-05-10T09:24:25;100791.72;;;19.67
75273;BMP280;63869;52.344;16.928;2023-05-10T09:26:52;100782.69;;;19.70
75273;BMP280;63869;52.344;16.928;2023-05-10T09:29:17;100793.44;;;19.79
75273;BMP280;63869;52.344;16.928;2023-05-10T09:31:51;100802.16;;;19.84
75273;BMP280;63869;52.344;16.928;2023-05-10T09:34:28;100795.03;;;19.86
75273;BMP280;63869;52.344;16.928;2023-05-10T09:36:56;100800.81;;;19.94
75273;BMP280;63869;52.344;16.928;2023-05-10T09:39:36;100796.41;;;19.96
75273;BMP280;63869;52.344;16.928;2023-05-10T09:42:09;100798.00;;;20.03
75273;BMP280;63869;52.344;16.928;2023-05-10T09:44:35;100808.19;;;20.08
75273;BMP280;63869;52.344;16.928;2023-05-10T09:47:02;100805.84;;;20.15
75273;BMP280;63869;52.344;16.928;2023-05-10T09:49:27;100804.72;;;20.22
75273;BMP280;63869;52.344;16.928;2023-05-10T09:52:01;100804.31;;;20.29
75273;BMP280;63869;52.344;16.928;2023-05-10T09:54:27;100803.22;;;20.36
75273;BMP280;63869;52.344;16.928;2023-05-10T09:56:52;100792.38;;;20.41
75273;BMP280;63869;52.344;16.928;2023-05-10T09:59:18;100799.13;;;20.46
75273;BMP280;63869;52.344;16.928;2023-05-10T10:01:49;100791.81;;;20.52
75273;BMP280;63869;52.344;16.928;2023-05-10T10:04:15;100790.38;;;20.56
75273;BMP280;63869;52.344;16.928;2023-05-10T10:06:40;100790.00;;;20.64
75273;BMP280;63869;52.344;16.928;2023-05-10T10:09:06;100790.53;;;20.68
75273;BMP280;63869;52.344;16.928;2023-05-10T10:11:34;100794.03;;;20.74
75273;BMP280;63869;52.344;16.928;2023-05-10T10:14:00;100782.22;;;20.77
75273;BMP280;63869;52.344;16.928;2023-05-10T10:16:27;100786.72;;;20.80
75273;BMP280;63869;52.344;16.928;2023-05-10T10:18:54;100781.34;;;20.85
75273;BMP280;63869;52.344;16.928;2023-05-10T10:21:20;100772.47;;;20.90
75273;BMP280;63869;52.344;16.928;2023-05-10T10:23:46;100786.16;;;20.96
75273;BMP280;63869;52.344;16.928;2023-05-10T10:26:11;100781.75;;;20.98
75273;BMP280;63869;52.344;16.928;2023-05-10T10:31:40;100790.47;;;21.08
75273;BMP280;63869;52.344;16.928;2023-05-10T10:34:08;100790.28;;;21.12
75273;BMP280;63869;52.344;16.928;2023-05-10T10:36:45;100783.41;;;21.16
75273;BMP280;63869;52.344;16.928;2023-05-10T10:39:11;100774.56;;;21.21
75273;BMP280;63869;52.344;16.928;2023-05-10T10:41:49;100774.66;;;21.27
75273;BMP280;63869;52.344;16.928;2023-05-10T10:49:50;100764.59;;;21.38
75273;BMP280;63869;52.344;16.928;2023-05-10T10:52:25;100766.41;;;21.47
75273;BMP280;63869;52.344;16.928;2023-05-10T10:58:02;100761.34;;;21.66
75273;BMP280;63869;52.344;16.928;2023-05-10T11:00:35;100762.63;;;21.70
75273;BMP280;63869;52.344;16.928;2023-05-10T11:05:39;100754.53;;;21.81
75273;BMP280;63869;52.344;16.928;2023-05-10T11:10:32;100757.09;;;21.91
75273;BMP280;63869;52.344;16.928;2023-05-10T11:13:07;100752.41;;;21.97
75273;BMP280;63869;52.344;16.928;2023-05-10T11:15:37;100745.00;;;22.03
75273;BMP280;63869;52.344;16.928;2023-05-10T11:20:50;100733.16;;;22.11
75273;BMP280;63869;52.344;16.928;2023-05-10T11:23:16;100728.00;;;22.13
75273;BMP280;63869;52.344;16.928;2023-05-10T11:25:43;100737.22;;;22.21
75273;BMP280;63869;52.344;16.928;2023-05-10T11:28:09;100732.00;;;22.23
75273;BMP280;63869;52.344;16.928;2023-05-10T11:30:36;100726.59;;;22.29
75273;BMP280;63869;52.344;16.928;2023-05-10T11:33:02;100724.38;;;22.33
75273;BMP280;63869;52.344;16.928;2023-05-10T11:35:27;100734.06;;;22.40
75273;BMP280;63869;52.344;16.928;2023-05-10T11:37:53;100735.31;;;22.44
75273;BMP280;63869;52.344;16.928;2023-05-10T11:40:18;100742.75;;;22.49
75273;BMP280;63869;52.344;16.928;2023-05-10T11:42:44;100730.91;;;22.52
75273;BMP280;63869;52.344;16.928;2023-05-10T11:45:10;100730.66;;;22.56
75273;BMP280;63869;52.344;16.928;2023-05-10T11:47:36;100737.84;;;22.64
75273;BMP280;63869;52.344;16.928;2023-05-10T11:50:02;100739.09;;;22.69
75273;BMP280;63869;52.344;16.928;2023-05-10T11:52:27;100740.84;;;22.78
75273;BMP280;63869;52.344;16.928;2023-05-10T11:54:54;100720.81;;;22.86
75273;BMP280;63869;52.344;16.928;2023-05-10T11:57:20;100724.53;;;23.00
75273;BMP280;63869;52.344;16.928;2023-05-10T11:59:53;100730.75;;;23.23
75273;BMP280;63869;52.344;16.928;2023-05-10T12:02:20;100730.75;;;23.45
75273;BMP280;63869;52.344;16.928;2023-05-10T12:04:46;100739.66;;;23.68
75273;BMP280;63869;52.344;16.928;2023-05-10T12:07:11;100731.16;;;23.88
75273;BMP280;63869;52.344;16.928;2023-05-10T12:09:36;100729.34;;;24.13
75273;BMP280;63869;52.344;16.928;2023-05-10T12:12:02;100735.22;;;24.39
75273;BMP280;63869;52.344;16.928;2023-05-10T12:14:28;100740.78;;;24.63
75273;BMP280;63869;52.344;16.928;2023-05-10T12:16:53;100737.88;;;24.85
75273;BMP280;63869;52.344;16.928;2023-05-10T12:19:19;100731.47;;;25.13
75273;BMP280;63869;52.344;16.928;2023-05-10T12:21:48;100727.50;;;25.38
75273;BMP280;63869;52.344;16.928;2023-05-10T12:24:13;100726.00;;;25.61
75273;BMP280;63869;52.344;16.928;2023-05-10T12:26:41;100740.38;;;25.92
75273;BMP280;63869;52.344;16.928;2023-05-10T12:29:19;100743.00;;;26.21
75273;BMP280;63869;52.344;16.928;2023-05-10T12:31:50;100729.63;;;26.50
75273;BMP280;63869;52.344;16.928;2023-05-10T12:34:26;100730.50;;;26.76
75273;BMP280;63869;52.344;16.928;2023-05-10T12:36:54;100728.00;;;27.05
75273;BMP280;63869;52.344;16.928;2023-05-10T12:39:21;100738.31;;;27.31
75273;BMP280;63869;52.344;16.928;2023-05-10T12:41:46;100727.34;;;27.57
75273;BMP280;63869;52.344;16.928;2023-05-10T12:44:12;100733.72;;;27.86
75273;BMP280;63869;52.344;16.928;2023-05-10T12:46:37;100718.56;;;28.05
75273;BMP280;63869;52.344;16.928;2023-05-10T12:49:02;100732.50;;;28.41
75273;BMP280;63869;52.344;16.928;2023-05-10T12:51:28;100735.34;;;28.69
75273;BMP280;63869;52.344;16.928;2023-05-10T12:53:53;100731.16;;;28.97
75273;BMP280;63869;52.344;16.928;2023-05-10T12:56:19;100725.66;;;29.25
75273;BMP280;63869;52.344;16.928;2023-05-10T12:58:45;100730.91;;;29.51
75273;BMP280;63869;52.344;16.928;2023-05-10T13:01:13;100714.84;;;29.86
75273;BMP280;63869;52.344;16.928;2023-05-10T13:03:40;100717.50;;;30.14
75273;BMP280;63869;52.344;16.928;2023-05-10T13:06:05;100721.41;;;30.41
75273;BMP280;63869;52.344;16.928;2023-05-10T13:08:34;100715.13;;;30.63
75273;BMP280;63869;52.344;16.928;2023-05-10T13:11:01;100716.03;;;30.81
75273;BMP280;63869;52.344;16.928;2023-05-10T13:13:26;100724.84;;;31.02
75273;BMP280;63869;52.344;16.928;2023-05-10T13:15:52;100724.03;;;31.32
75273;BMP280;63869;52.344;16.928;2023-05-10T13:18:17;100704.75;;;31.57
75273;BMP280;63869;52.344;16.928;2023-05-10T13:20:42;100691.88;;;31.84
75273;BMP280;63869;52.344;16.928;2023-05-10T13:23:09;100713.16;;;32.23
75273;BMP280;63869;52.344;16.928;2023-05-10T13:25:35;100701.59;;;32.59
75273;BMP280;63869;52.344;16.928;2023-05-10T13:28:01;100698.84;;;32.94
75273;BMP280;63869;52.344;16.928;2023-05-10T13:30:26;100702.69;;;33.25
75273;BMP280;63869;52.344;16.928;2023-05-10T13:32:51;100696.56;;;33.53
75273;BMP280;63869;52.344;16.928;2023-05-10T13:35:17;100695.69;;;33.87
75273;BMP280;63869;52.344;16.928;2023-05-10T13:37:42;100695.66;;;34.14
75273;BMP280;63869;52.344;16.928;2023-05-10T13:40:08;100689.25;;;34.40
75273;BMP280;63869;52.344;16.928;2023-05-10T13:42:33;100688.22;;;34.64
75273;BMP280;63869;52.344;16.928;2023-05-10T13:44:59;100679.03;;;34.90
75273;BMP280;63869;52.344;16.928;2023-05-10T13:47:26;100685.22;;;35.20
75273;BMP280;63869;52.344;16.928;2023-05-10T13:49:51;100687.47;;;35.52
75273;BMP280;63869;52.344;16.928;2023-05-10T13:52:17;100695.53;;;35.79
75273;BMP280;63869;52.344;16.928;2023-05-10T13:54:42;100687.38;;;36.02
75273;BMP280;63869;52.344;16.928;2023-05-10T13:57:07;100683.22;;;36.24
75273;BMP280;63869;52.344;16.928;2023-05-10T13:59:33;100680.56;;;36.47
75273;BMP280;63869;52.344;16.928;2023-05-10T14:01:59;100681.38;;;36.71
75273;BMP280;63869;52.344;16.928;2023-05-10T14:04:25;100670.13;;;36.92
75273;BMP280;63869;52.344;16.928;2023-05-10T14:06:50;100674.78;;;37.22
75273;BMP280;63869;52.344;16.928;2023-05-10T14:09:16;100675.75;;;37.50
75273;BMP280;63869;52.344;16.928;2023-05-10T14:11:41;100681.66;;;37.79
75273;BMP280;63869;52.344;16.928;2023-05-10T14:14:09;100680.75;;;38.12